sensor_id;sensor_type;location;lat;lon;timestamp;P1;durP1;ratioP1;P2;durP2;ratioP2
29240;SDS011;16268;49.880;8.648;2022-08-18T00:00:05;7.55;;;4.82;;
29240;SDS011;16268;49.880;8.648;2022-08-18T00:02:35;9.18;;;5.50;;
29240;SDS011;16268;49.880;8.648;2022-08-18T00:05:03;8.65;;;5.28;;
29240;SDS011;16268;49.880;8.648;2022-08-18T00:07:30;9.48;;;5.70;;
29240;SDS011;16268;49.880;8.648;2022-08-18T00:09:56;8.82;;;5.82;;
29240;SDS011;16268;49.880;8.648;2022-08-18T00:12:26;7.30;;;5.68;;
29240;SDS011;16268;49.880;8.648;2022-08-18T00:14:54;7.82;;;5.70;;
29240;SDS011;16268;49.880;8.648;2022-08-18T00:17:21;8.80;;;6.32;;
29240;SDS011;16268;49.880;8.648;2022-08-18T00:19:46;8.38;;;5.78;;
29240;SDS011;16268;49.880;8.648;2022-08-18T00:22:14;7.80;;;4.88;;
29240;SDS011;16268;49.880;8.648;2022-08-18T00:24:42;11.15;;;5.65;;
29240;SDS011;16268;49.880;8.648;2022-08-18T00:27:09;8.82;;;4.57;;
29240;SDS011;16268;49.880;8.648;2022-08-18T00:29:36;8.55;;;5.32;;
29240;SDS011;16268;49.880;8.648;2022-08-18T00:32:12;7.60;;;4.78;;
29240;SDS011;16268;49.880;8.648;2022-08-18T00:34:39;6.55;;;5.20;;
29240;SDS011;16268;49.880;8.648;2022-08-18T00:37:05;7.20;;;5.10;;
29240;SDS011;16268;49.880;8.648;2022-08-18T00:39:32;8.45;;;5.40;;
29240;SDS011;16268;49.880;8.648;2022-08-18T00:41:58;10.93;;;4.68;;
29240;SDS011;16268;49.880;8.648;2022-08-18T00:44:24;7.63;;;5.15;;
29240;SDS011;16268;49.880;8.648;2022-08-18T00:46:50;7.22;;;4.82;;
29240;SDS011;16268;49.880;8.648;2022-08-18T00:49:16;7.72;;;5.30;;
29240;SDS011;16268;49.880;8.648;2022-08-18T00:51:46;9.15;;;5.13;;
29240;SDS011;16268;49.880;8.648;2022-08-18T00:54:14;7.57;;;5.30;;
29240;SDS011;16268;49.880;8.648;2022-08-18T00:56:44;7.15;;;5.45;;
29240;SDS011;16268;49.880;8.648;2022-08-18T01:02:01;8.27;;;5.68;;
29240;SDS011;16268;49.880;8.648;2022-08-18T01:07:04;9.55;;;5.13;;
29240;SDS011;16268;49.880;8.648;2022-08-18T01:09:34;8.07;;;5.35;;
29240;SDS011;16268;49.880;8.648;2022-08-18T01:12:00;7.93;;;5.15;;
29240;SDS011;16268;49.880;8.648;2022-08-18T01:14:26;8.30;;;5.65;;
29240;SDS011;16268;49.880;8.648;2022-08-18T01:16:51;7.63;;;4.88;;
29240;SDS011;16268;49.880;8.648;2022-08-18T01:19:36;7.20;;;5.05;;
29240;SDS011;16268;49.880;8.648;2022-08-18T01:22:26;9.55;;;5.80;;
29240;SDS011;16268;49.880;8.648;2022-08-18T01:24:53;9.50;;;5.50;;
29240;SDS011;16268;49.880;8.648;2022-08-18T01:27:40;8.15;;;5.47;;
29240;SDS011;16268;49.880;8.648;2022-08-18T01:30:08;6.75;;;5.03;;
29240;SDS011;16268;49.880;8.648;2022-08-18T01:32:37;6.72;;;5.13;;
29240;SDS011;16268;49.880;8.648;2022-08-18T01:35:05;6.85;;;5.15;;
29240;SDS011;16268;49.880;8.648;2022-08-18T01:37:34;7.93;;;4.97;;
29240;SDS011;16268;49.880;8.648;2022-08-18T01:40:00;7.68;;;5.35;;
29240;SDS011;16268;49.880;8.648;2022-08-18T01:42:29;7.28;;;5.22;;
29240;SDS011;16268;49.880;8.648;2022-08-18T01:44:55;8.55;;;5.20;;
29240;SDS011;16268;49.880;8.648;2022-08-18T01:47:20;7.25;;;5.10;;
29240;SDS011;16268;49.880;8.648;2022-08-18T01:49:46;9.50;;;5.32;;
29240;SDS011;16268;49.880;8.648;2022-08-18T01:52:16;7.95;;;4.75;;
29240;SDS011;16268;49.880;8.648;2022-08-18T01:54:44;6.90;;;4.93;;
29240;SDS011;16268;49.880;8.648;2022-08-18T01:57:10;7.25;;;5.03;;
29240;SDS011;16268;49.880;8.648;2022-08-18T01:59:37;7.82;;;4.82;;
29240;SDS011;16268;49.880;8.648;2022-08-18T02:02:03;9.35;;;5.25;;
29240;SDS011;16268;49.880;8.648;2022-08-18T02:04:29;7.32;;;5.03;;
29240;SDS011;16268;49.880;8.648;2022-08-18T02:06:57;7.07;;;4.72;;
29240;SDS011;16268;49.880;8.648;2022-08-18T02:09:25;8.25;;;4.93;;
29240;SDS011;16268;49.880;8.648;2022-08-18T02:11:52;7.90;;;4.78;;
29240;SDS011;16268;49.880;8.648;2022-08-18T02:14:17;7.00;;;4.63;;
29240;SDS011;16268;49.880;8.648;2022-08-18T02:16:43;8.48;;;4.57;;
29240;SDS011;16268;49.880;8.648;2022-08-18T02:19:09;7.15;;;4.47;;
29240;SDS011;16268;49.880;8.648;2022-08-18T02:21:36;6.22;;;4.32;;
29240;SDS011;16268;49.880;8.648;2022-08-18T02:24:02;8.05;;;4.82;;
29240;SDS011;16268;49.880;8.648;2022-08-18T02:26:28;7.30;;;4.55;;
29240;SDS011;16268;49.880;8.648;2022-08-18T02:28:53;7.95;;;5.07;;
29240;SDS011;16268;49.880;8.648;2022-08-18T02:31:20;7.28;;;4.57;;
29240;SDS011;16268;49.880;8.648;2022-08-18T02:33:47;6.22;;;4.40;;
29240;SDS011;16268;49.880;8.648;2022-08-18T02:36:13;7.63;;;4.80;;
29240;SDS011;16268;49.880;8.648;2022-08-18T02:38:39;7.25;;;4.53;;
29240;SDS011;16268;49.880;8.648;2022-08-18T02:41:05;6.78;;;4.50;;
29240;SDS011;16268;49.880;8.648;2022-08-18T02:43:34;7.60;;;4.40;;
29240;SDS011;16268;49.880;8.648;2022-08-18T02:46:01;8.68;;;4.80;;
29240;SDS011;16268;49.880;8.648;2022-08-18T02:48:27;5.95;;;4.32;;
29240;SDS011;16268;49.880;8.648;2022-08-18T02:51:01;6.68;;;4.60;;
29240;SDS011;16268;49.880;8.648;2022-08-18T02:53:33;7.97;;;3.83;;
29240;SDS011;16268;49.880;8.648;2022-08-18T02:56:04;7.13;;;4.05;;
29240;SDS011;16268;49.880;8.648;2022-08-18T02:58:43;7.60;;;4.47;;
29240;SDS011;16268;49.880;8.648;2022-08-18T03:01:09;5.80;;;3.90;;
29240;SDS011;16268;49.880;8.648;2022-08-18T03:03:35;7.82;;;4.10;;
29240;SDS011;16268;49.880;8.648;2022-08-18T03:06:01;5.45;;;3.90;;
29240;SDS011;16268;49.880;8.648;2022-08-18T03:08:27;6.28;;;4.07;;
29240;SDS011;16268;49.880;8.648;2022-08-18T03:10:52;6.50;;;4.03;;
29240;SDS011;16268;49.880;8.648;2022-08-18T03:13:18;6.15;;;3.75;;
29240;SDS011;16268;49.880;8.648;2022-08-18T03:15:44;6.38;;;4.47;;
29240;SDS011;16268;49.880;8.648;2022-08-18T03:18:11;6.55;;;4.25;;
29240;SDS011;16268;49.880;8.648;2022-08-18T03:20:37;6.05;;;4.00;;
29240;SDS011;16268;49.880;8.648;2022-08-18T03:23:03;5.47;;;4.03;;
29240;SDS011;16268;49.880;8.648;2022-08-18T03:25:29;5.85;;;3.97;;
29240;SDS011;16268;49.880;8.648;2022-08-18T03:27:55;6.53;;;4.03;;
29240;SDS011;16268;49.880;8.648;2022-08-18T03:30:20;8.73;;;4.30;;
29240;SDS011;16268;49.880;8.648;2022-08-18T03:32:47;6.15;;;4.13;;
29240;SDS011;16268;49.880;8.648;2022-08-18T03:35:13;5.65;;;4.05;;
29240;SDS011;16268;49.880;8.648;2022-08-18T03:37:39;6.45;;;4.25;;
29240;SDS011;16268;49.880;8.648;2022-08-18T03:40:05;5.95;;;4.28;;
29240;SDS011;16268;49.880;8.648;2022-08-18T03:42:31;6.57;;;4.18;;
29240;SDS011;16268;49.880;8.648;2022-08-18T03:44:56;5.38;;;3.95;;
29240;SDS011;16268;49.880;8.648;2022-08-18T03:47:22;7.03;;;4.20;;
29240;SDS011;16268;49.880;8.648;2022-08-18T03:49:48;6.50;;;4.00;;
29240;SDS011;16268;49.880;8.648;2022-08-18T03:52:14;6.53;;;4.15;;
29240;SDS011;16268;49.880;8.648;2022-08-18T03:54:39;5.78;;;4.00;;
29240;SDS011;16268;49.880;8.648;2022-08-18T03:57:08;6.40;;;4.25;;
29240;SDS011;16268;49.880;8.648;2022-08-18T03:59:35;5.75;;;4.20;;
29240;SDS011;16268;49.880;8.648;2022-08-18T04:02:01;5.28;;;3.90;;
29240;SDS011;16268;49.880;8.648;2022-08-18T04:04:28;5.57;;;4.05;;
29240;SDS011;16268;49.880;8.648;2022-08-18T04:06:55;6.75;;;4.22;;
29240;SDS011;16268;49.880;8.648;2022-08-18T04:09:25;5.35;;;4.10;;
29240;SDS011;16268;49.880;8.648;2022-08-18T04:11:52;6.63;;;4.05;;
29240;SDS011;16268;49.880;8.648;2022-08-18T04:14:19;26.92;;;4.85;;
29240;SDS011;16268;49.880;8.648;2022-08-18T04:16:48;46.30;;;8.10;;
29240;SDS011;16268;49.880;8.648;2022-08-18T04:19:14;9.98;;;4.18;;
29240;SDS011;16268;49.880;8.648;2022-08-18T04:21:43;7.00;;;4.30;;
29240;SDS011;16268;49.880;8.648;2022-08-18T04:24:10;7.28;;;3.15;;
29240;SDS011;16268;49.880;8.648;2022-08-18T04:26:39;7.68;;;3.70;;
29240;SDS011;16268;49.880;8.648;2022-08-18T04:29:07;7.40;;;4.15;;
29240;SDS011;16268;49.880;8.648;2022-08-18T04:31:34;7.82;;;3.60;;
29240;SDS011;16268;49.880;8.648;2022-08-18T04:34:00;5.97;;;3.70;;
29240;SDS011;16268;49.880;8.648;2022-08-18T04:36:28;5.60;;;3.92;;
29240;SDS011;16268;49.880;8.648;2022-08-18T04:38:55;6.53;;;3.88;;
29240;SDS011;16268;49.880;8.648;2022-08-18T04:41:23;6.53;;;4.10;;
29240;SDS011;16268;49.880;8.648;2022-08-18T04:43:53;8.80;;;4.07;;
29240;SDS011;16268;49.880;8.648;2022-08-18T04:46:19;5.55;;;3.90;;
29240;SDS011;16268;49.880;8.648;2022-08-18T04:48:45;7.00;;;4.07;;
29240;SDS011;16268;49.880;8.648;2022-08-18T04:51:17;6.65;;;4.28;;
29240;SDS011;16268;49.880;8.648;2022-08-18T04:53:44;6.47;;;3.90;;
29240;SDS011;16268;49.880;8.648;2022-08-18T04:56:21;8.45;;;4.50;;
29240;SDS011;16268;49.880;8.648;2022-08-18T04:58:53;6.88;;;4.65;;
29240;SDS011;16268;49.880;8.648;2022-08-18T05:01:22;6.50;;;4.40;;
29240;SDS011;16268;49.880;8.648;2022-08-18T05:03:53;8.23;;;4.53;;
29240;SDS011;16268;49.880;8.648;2022-08-18T05:06:21;7.45;;;4.78;;
29240;SDS011;16268;49.880;8.648;2022-08-18T05:08:51;7.72;;;4.57;;
29240;SDS011;16268;49.880;8.648;2022-08-18T05:11:18;7.03;;;4.45;;
29240;SDS011;16268;49.880;8.648;2022-08-18T05:13:45;6.00;;;4.20;;
29240;SDS011;16268;49.880;8.648;2022-08-18T05:16:12;7.30;;;4.40;;
29240;SDS011;16268;49.880;8.648;2022-08-18T05:18:38;5.68;;;4.10;;
29240;SDS011;16268;49.880;8.648;2022-08-18T05:21:04;6.95;;;4.60;;
29240;SDS011;16268;49.880;8.648;2022-08-18T05:23:41;5.82;;;4.20;;
29240;SDS011;16268;49.880;8.648;2022-08-18T05:26:08;6.53;;;4.50;;
29240;SDS011;16268;49.880;8.648;2022-08-18T05:28:34;6.85;;;4.40;;
29240;SDS011;16268;49.880;8.648;2022-08-18T05:31:08;7.18;;;4.78;;
29240;SDS011;16268;49.880;8.648;2022-08-18T05:33:36;7.18;;;4.57;;
29240;SDS011;16268;49.880;8.648;2022-08-18T05:36:04;8.50;;;4.82;;
29240;SDS011;16268;49.880;8.648;2022-08-18T05:41:42;6.00;;;4.22;;
29240;SDS011;16268;49.880;8.648;2022-08-18T05:44:13;5.80;;;4.40;;
29240;SDS011;16268;49.880;8.648;2022-08-18T05:47:25;5.82;;;3.90;;
29240;SDS011;16268;49.880;8.648;2022-08-18T05:49:35;6.97;;;4.47;;
29240;SDS011;16268;49.880;8.648;2022-08-18T05:52:06;5.57;;;4.20;;
29240;SDS011;16268;49.880;8.648;2022-08-18T05:54:45;6.28;;;4.28;;
29240;SDS011;16268;49.880;8.648;2022-08-18T05:57:33;6.93;;;4.57;;
29240;SDS011;16268;49.880;8.648;2022-08-18T06:00:07;6.05;;;3.90;;
29240;SDS011;16268;49.880;8.648;2022-08-18T06:02:37;14.35;;;10.27;;
29240;SDS011;16268;49.880;8.648;2022-08-18T06:05:18;8.15;;;5.57;;
29240;SDS011;16268;49.880;8.648;2022-08-18T06:07:52;47.22;;;35.95;;
29240;SDS011;16268;49.880;8.648;2022-08-18T06:10:21;20.17;;;15.25;;
29240;SDS011;16268;49.880;8.648;2022-08-18T06:12:48;8.80;;;6.82;;
29240;SDS011;16268;49.880;8.648;2022-08-18T06:15:19;18.23;;;12.35;;
29240;SDS011;16268;49.880;8.648;2022-08-18T06:23:41;18.77;;;13.35;;
29240;SDS011;16268;49.880;8.648;2022-08-18T06:31:22;13.17;;;8.67;;
29240;SDS011;16268;49.880;8.648;2022-08-18T06:34:38;7.05;;;4.90;;
29240;SDS011;16268;49.880;8.648;2022-08-18T06:37:32;9.85;;;5.40;;
29240;SDS011;16268;49.880;8.648;2022-08-18T06:40:24;8.20;;;5.50;;
29240;SDS011;16268;49.880;8.648;2022-08-18T06:42:49;10.05;;;5.75;;
29240;SDS011;16268;49.880;8.648;2022-08-18T06:45:15;9.18;;;5.25;;
29240;SDS011;16268;49.880;8.648;2022-08-18T06:50:25;7.82;;;5.47;;
29240;SDS011;16268;49.880;8.648;2022-08-18T06:53:09;18.13;;;12.93;;
29240;SDS011;16268;49.880;8.648;2022-08-18T06:55:45;29.33;;;18.85;;
29240;SDS011;16268;49.880;8.648;2022-08-18T07:03:40;9.45;;;6.80;;
29240;SDS011;16268;49.880;8.648;2022-08-18T07:10:59;10.40;;;6.15;;
29240;SDS011;16268;49.880;8.648;2022-08-18T07:13:36;9.80;;;5.97;;
29240;SDS011;16268;49.880;8.648;2022-08-18T07:16:15;7.25;;;5.13;;
29240;SDS011;16268;49.880;8.648;2022-08-18T07:19:05;8.02;;;5.70;;
29240;SDS011;16268;49.880;8.648;2022-08-18T07:21:35;9.55;;;5.60;;
29240;SDS011;16268;49.880;8.648;2022-08-18T07:29:40;8.90;;;6.32;;
29240;SDS011;16268;49.880;8.648;2022-08-18T07:32:38;8.70;;;6.65;;
29240;SDS011;16268;49.880;8.648;2022-08-18T07:35:21;9.52;;;6.90;;
29240;SDS011;16268;49.880;8.648;2022-08-18T07:43:19;9.77;;;7.13;;
29240;SDS011;16268;49.880;8.648;2022-08-18T07:45:54;10.00;;;7.35;;
29240;SDS011;16268;49.880;8.648;2022-08-18T07:48:26;10.23;;;7.13;;
29240;SDS011;16268;49.880;8.648;2022-08-18T07:56:29;11.23;;;7.85;;
29240;SDS011;16268;49.880;8.648;2022-08-18T08:01:47;10.75;;;7.32;;
29240;SDS011;16268;49.880;8.648;2022-08-18T08:04:42;9.18;;;7.38;;
29240;SDS011;16268;49.880;8.648;2022-08-18T08:07:14;11.07;;;7.95;;
29240;SDS011;16268;49.880;8.648;2022-08-18T08:09:47;11.27;;;7.57;;
29240;SDS011;16268;49.880;8.648;2022-08-18T08:20:49;11.38;;;8.32;;
29240;SDS011;16268;49.880;8.648;2022-08-18T08:26:16;9.77;;;7.95;;
29240;SDS011;16268;49.880;8.648;2022-08-18T08:29:09;11.40;;;8.10;;
29240;SDS011;16268;49.880;8.648;2022-08-18T08:31:56;10.10;;;8.60;;
29240;SDS011;16268;49.880;8.648;2022-08-18T08:34:44;11.65;;;8.95;;
29240;SDS011;16268;49.880;8.648;2022-08-18T08:37:38;13.10;;;9.05;;
29240;SDS011;16268;49.880;8.648;2022-08-18T08:40:18;12.77;;;8.93;;
29240;SDS011;16268;49.880;8.648;2022-08-18T08:42:50;12.88;;;8.80;;
29240;SDS011;16268;49.880;8.648;2022-08-18T08:45:24;10.65;;;9.20;;
29240;SDS011;16268;49.880;8.648;2022-08-18T08:48:00;13.27;;;8.25;;
29240;SDS011;16268;49.880;8.648;2022-08-18T08:50:40;11.02;;;8.77;;
29240;SDS011;16268;49.880;8.648;2022-08-18T08:53:20;10.77;;;8.15;;
29240;SDS011;16268;49.880;8.648;2022-08-18T08:55:58;10.85;;;8.90;;
29240;SDS011;16268;49.880;8.648;2022-08-18T09:00:52;10.68;;;8.60;;
29240;SDS011;16268;49.880;8.648;2022-08-18T09:03:21;10.55;;;8.95;;
29240;SDS011;16268;49.880;8.648;2022-08-18T09:06:20;10.50;;;8.77;;
29240;SDS011;16268;49.880;8.648;2022-08-18T09:09:16;12.02;;;8.95;;
29240;SDS011;16268;49.880;8.648;2022-08-18T09:23:16;14.32;;;12.35;;
29240;SDS011;16268;49.880;8.648;2022-08-18T09:25:50;15.18;;;13.02;;
29240;SDS011;16268;49.880;8.648;2022-08-18T09:30:53;19.08;;;16.58;;
29240;SDS011;16268;49.880;8.648;2022-08-18T09:36:08;16.00;;;14.35;;
29240;SDS011;16268;49.880;8.648;2022-08-18T09:38:57;21.75;;;16.95;;
29240;SDS011;16268;49.880;8.648;2022-08-18T09:49:50;23.17;;;19.85;;
29240;SDS011;16268;49.880;8.648;2022-08-18T10:05:29;22.60;;;20.17;;
29240;SDS011;16268;49.880;8.648;2022-08-18T10:16:43;21.70;;;19.38;;
29240;SDS011;16268;49.880;8.648;2022-08-18T10:22:11;20.95;;;18.42;;
29240;SDS011;16268;49.880;8.648;2022-08-18T10:24:43;22.15;;;19.63;;
29240;SDS011;16268;49.880;8.648;2022-08-18T10:29:59;18.17;;;16.00;;
29240;SDS011;16268;49.880;8.648;2022-08-18T10:32:36;18.50;;;15.35;;
29240;SDS011;16268;49.880;8.648;2022-08-18T10:35:04;17.75;;;14.90;;
29240;SDS011;16268;49.880;8.648;2022-08-18T10:37:50;17.25;;;14.77;;
29240;SDS011;16268;49.880;8.648;2022-08-18T10:40:18;17.85;;;15.50;;
29240;SDS011;16268;49.880;8.648;2022-08-18T10:45:36;85.18;;;64.18;;
29240;SDS011;16268;49.880;8.648;2022-08-18T10:48:11;22.08;;;18.75;;
29240;SDS011;16268;49.880;8.648;2022-08-18T10:50:49;18.50;;;16.50;;
29240;SDS011;16268;49.880;8.648;2022-08-18T10:53:35;20.33;;;18.13;;
29240;SDS011;16268;49.880;8.648;2022-08-18T10:56:28;24.88;;;21.08;;
29240;SDS011;16268;49.880;8.648;2022-08-18T10:59:07;17.58;;;15.15;;
29240;SDS011;16268;49.880;8.648;2022-08-18T11:01:54;19.15;;;16.92;;
29240;SDS011;16268;49.880;8.648;2022-08-18T11:04:37;19.67;;;17.17;;
29240;SDS011;16268;49.880;8.648;2022-08-18T11:07:12;19.55;;;17.50;;
29240;SDS011;16268;49.880;8.648;2022-08-18T11:09:44;18.23;;;15.82;;
29240;SDS011;16268;49.880;8.648;2022-08-18T11:12:14;20.48;;;17.77;;
29240;SDS011;16268;49.880;8.648;2022-08-18T11:15:06;22.02;;;19.83;;
29240;SDS011;16268;49.880;8.648;2022-08-18T11:18:00;24.35;;;21.85;;
29240;SDS011;16268;49.880;8.648;2022-08-18T11:20:31;24.02;;;21.17;;
29240;SDS011;16268;49.880;8.648;2022-08-18T11:22:58;23.38;;;19.50;;
29240;SDS011;16268;49.880;8.648;2022-08-18T11:25:33;24.07;;;21.33;;
29240;SDS011;16268;49.880;8.648;2022-08-18T11:28:01;27.73;;;23.70;;
29240;SDS011;16268;49.880;8.648;2022-08-18T11:30:29;29.60;;;26.50;;
29240;SDS011;16268;49.880;8.648;2022-08-18T11:32:58;30.92;;;27.63;;
29240;SDS011;16268;49.880;8.648;2022-08-18T11:35:43;32.10;;;28.48;;
29240;SDS011;16268;49.880;8.648;2022-08-18T11:38:15;30.98;;;27.60;;
29240;SDS011;16268;49.880;8.648;2022-08-18T11:40:47;29.27;;;26.17;;
29240;SDS011;16268;49.880;8.648;2022-08-18T11:43:17;26.48;;;23.65;;
29240;SDS011;16268;49.880;8.648;2022-08-18T11:45:59;28.92;;;25.48;;
29240;SDS011;16268;49.880;8.648;2022-08-18T11:48:43;25.45;;;22.75;;
29240;SDS011;16268;49.880;8.648;2022-08-18T11:51:16;25.27;;;21.67;;
29240;SDS011;16268;49.880;8.648;2022-08-18T12:01:40;22.80;;;20.38;;
29240;SDS011;16268;49.880;8.648;2022-08-18T12:12:32;22.77;;;20.38;;
29240;SDS011;16268;49.880;8.648;2022-08-18T12:15:22;23.42;;;20.52;;
29240;SDS011;16268;49.880;8.648;2022-08-18T12:17:50;22.13;;;18.80;;
29240;SDS011;16268;49.880;8.648;2022-08-18T12:20:16;23.17;;;20.67;;
29240;SDS011;16268;49.880;8.648;2022-08-18T12:22:43;22.67;;;20.27;;
29240;SDS011;16268;49.880;8.648;2022-08-18T12:25:14;20.80;;;18.08;;
29240;SDS011;16268;49.880;8.648;2022-08-18T12:27:43;23.42;;;20.55;;
29240;SDS011;16268;49.880;8.648;2022-08-18T12:30:09;23.40;;;20.90;;
29240;SDS011;16268;49.880;8.648;2022-08-18T12:32:36;21.00;;;18.83;;
29240;SDS011;16268;49.880;8.648;2022-08-18T12:35:03;24.67;;;21.95;;
29240;SDS011;16268;49.880;8.648;2022-08-18T12:37:31;21.55;;;19.23;;
29240;SDS011;16268;49.880;8.648;2022-08-18T12:39:57;23.75;;;19.48;;
29240;SDS011;16268;49.880;8.648;2022-08-18T12:42:24;22.98;;;20.15;;
29240;SDS011;16268;49.880;8.648;2022-08-18T12:44:50;20.25;;;18.15;;
29240;SDS011;16268;49.880;8.648;2022-08-18T12:47:21;21.50;;;19.27;;
29240;SDS011;16268;49.880;8.648;2022-08-18T12:49:48;20.85;;;18.65;;
29240;SDS011;16268;49.880;8.648;2022-08-18T12:52:14;19.63;;;17.52;;
29240;SDS011;16268;49.880;8.648;2022-08-18T12:54:40;22.17;;;18.08;;
29240;SDS011;16268;49.880;8.648;2022-08-18T12:57:19;21.58;;;16.88;;
29240;SDS011;16268;49.880;8.648;2022-08-18T12:59:49;20.05;;;16.45;;
29240;SDS011;16268;49.880;8.648;2022-08-18T13:02:15;20.30;;;17.40;;
29240;SDS011;16268;49.880;8.648;2022-08-18T13:04:41;20.98;;;17.48;;
29240;SDS011;16268;49.880;8.648;2022-08-18T13:07:07;20.73;;;18.45;;
29240;SDS011;16268;49.880;8.648;2022-08-18T13:09:36;17.73;;;15.30;;
29240;SDS011;16268;49.880;8.648;2022-08-18T13:12:02;15.80;;;14.10;;
29240;SDS011;16268;49.880;8.648;2022-08-18T13:14:28;16.73;;;14.93;;
29240;SDS011;16268;49.880;8.648;2022-08-18T13:16:54;18.27;;;14.40;;
29240;SDS011;16268;49.880;8.648;2022-08-18T13:19:19;17.15;;;15.35;;
29240;SDS011;16268;49.880;8.648;2022-08-18T13:21:45;17.85;;;16.05;;
29240;SDS011;16268;49.880;8.648;2022-08-18T13:24:11;16.25;;;14.38;;
29240;SDS011;16268;49.880;8.648;2022-08-18T13:26:38;15.55;;;12.70;;
29240;SDS011;16268;49.880;8.648;2022-08-18T13:29:09;14.63;;;12.25;;
29240;SDS011;16268;49.880;8.648;2022-08-18T13:31:34;15.88;;;13.50;;
29240;SDS011;16268;49.880;8.648;2022-08-18T13:34:01;15.30;;;12.90;;
29240;SDS011;16268;49.880;8.648;2022-08-18T13:36:27;14.02;;;12.43;;
29240;SDS011;16268;49.880;8.648;2022-08-18T13:39:08;15.23;;;12.80;;
29240;SDS011;16268;49.880;8.648;2022-08-18T13:41:35;15.10;;;13.50;;
29240;SDS011;16268;49.880;8.648;2022-08-18T13:44:01;14.95;;;13.27;;
29240;SDS011;16268;49.880;8.648;2022-08-18T13:46:26;15.73;;;13.95;;
29240;SDS011;16268;49.880;8.648;2022-08-18T13:48:52;13.32;;;11.60;;
29240;SDS011;16268;49.880;8.648;2022-08-18T13:51:19;14.00;;;11.25;;
29240;SDS011;16268;49.880;8.648;2022-08-18T13:56:12;15.60;;;12.23;;
29240;SDS011;16268;49.880;8.648;2022-08-18T13:58:38;13.68;;;11.90;;
29240;SDS011;16268;49.880;8.648;2022-08-18T14:01:05;15.85;;;11.73;;
29240;SDS011;16268;49.880;8.648;2022-08-18T14:03:35;12.60;;;11.18;;
29240;SDS011;16268;49.880;8.648;2022-08-18T14:06:01;12.23;;;10.77;;
29240;SDS011;16268;49.880;8.648;2022-08-18T14:08:28;13.20;;;11.05;;
29240;SDS011;16268;49.880;8.648;2022-08-18T14:10:56;14.48;;;10.93;;
29240;SDS011;16268;49.880;8.648;2022-08-18T14:13:24;15.07;;;12.48;;
29240;SDS011;16268;49.880;8.648;2022-08-18T14:15:52;14.23;;;11.85;;
29240;SDS011;16268;49.880;8.648;2022-08-18T14:18:19;12.50;;;11.20;;
29240;SDS011;16268;49.880;8.648;2022-08-18T14:20:45;13.18;;;11.52;;
29240;SDS011;16268;49.880;8.648;2022-08-18T14:23:29;14.10;;;12.15;;
29240;SDS011;16268;49.880;8.648;2022-08-18T14:26:13;15.05;;;11.27;;
29240;SDS011;16268;49.880;8.648;2022-08-18T14:28:57;12.18;;;10.25;;
29240;SDS011;16268;49.880;8.648;2022-08-18T14:31:23;13.20;;;10.95;;
29240;SDS011;16268;49.880;8.648;2022-08-18T14:33:48;10.52;;;9.50;;
29240;SDS011;16268;49.880;8.648;2022-08-18T14:36:14;12.63;;;10.48;;
29240;SDS011;16268;49.880;8.648;2022-08-18T14:38:41;17.02;;;10.77;;
29240;SDS011;16268;49.880;8.648;2022-08-18T14:41:07;10.85;;;9.75;;
29240;SDS011;16268;49.880;8.648;2022-08-18T14:43:36;12.48;;;10.88;;
29240;SDS011;16268;49.880;8.648;2022-08-18T14:46:02;13.85;;;11.82;;
29240;SDS011;16268;49.880;8.648;2022-08-18T14:48:29;12.18;;;10.88;;
29240;SDS011;16268;49.880;8.648;2022-08-18T14:50:55;12.10;;;10.73;;
29240;SDS011;16268;49.880;8.648;2022-08-18T14:53:24;13.85;;;11.40;;
29240;SDS011;16268;49.880;8.648;2022-08-18T14:55:52;11.52;;;9.80;;
29240;SDS011;16268;49.880;8.648;2022-08-18T14:58:19;10.43;;;9.02;;
29240;SDS011;16268;49.880;8.648;2022-08-18T15:00:48;9.50;;;8.50;;
29240;SDS011;16268;49.880;8.648;2022-08-18T15:03:13;9.77;;;7.65;;
29240;SDS011;16268;49.880;8.648;2022-08-18T15:05:39;9.57;;;7.65;;
29240;SDS011;16268;49.880;8.648;2022-08-18T15:08:05;8.80;;;7.32;;
29240;SDS011;16268;49.880;8.648;2022-08-18T15:10:31;9.23;;;6.55;;
29240;SDS011;16268;49.880;8.648;2022-08-18T15:12:57;9.40;;;7.38;;
29240;SDS011;16268;49.880;8.648;2022-08-18T15:15:24;12.02;;;6.95;;
29240;SDS011;16268;49.880;8.648;2022-08-18T15:17:51;9.93;;;7.22;;
29240;SDS011;16268;49.880;8.648;2022-08-18T15:20:17;7.88;;;7.07;;
29240;SDS011;16268;49.880;8.648;2022-08-18T15:22:44;8.20;;;7.03;;
29240;SDS011;16268;49.880;8.648;2022-08-18T15:25:29;9.52;;;6.88;;
29240;SDS011;16268;49.880;8.648;2022-08-18T15:28:19;8.98;;;7.18;;
29240;SDS011;16268;49.880;8.648;2022-08-18T15:30:50;9.27;;;7.00;;
29240;SDS011;16268;49.880;8.648;2022-08-18T15:33:17;8.95;;;6.32;;
29240;SDS011;16268;49.880;8.648;2022-08-18T15:35:44;8.23;;;6.50;;
29240;SDS011;16268;49.880;8.648;2022-08-18T15:38:15;9.18;;;6.90;;
29240;SDS011;16268;49.880;8.648;2022-08-18T15:43:12;6.57;;;5.88;;
29240;SDS011;16268;49.880;8.648;2022-08-18T15:45:40;8.75;;;6.05;;
29240;SDS011;16268;49.880;8.648;2022-08-18T15:48:09;7.88;;;6.88;;
29240;SDS011;16268;49.880;8.648;2022-08-18T15:50:35;14.95;;;11.73;;
29240;SDS011;16268;49.880;8.648;2022-08-18T15:53:02;7.75;;;6.32;;
29240;SDS011;16268;49.880;8.648;2022-08-18T15:55:30;8.35;;;6.15;;
29240;SDS011;16268;49.880;8.648;2022-08-18T15:57:57;7.60;;;6.05;;
29240;SDS011;16268;49.880;8.648;2022-08-18T16:00:24;8.57;;;5.95;;
29240;SDS011;16268;49.880;8.648;2022-08-18T16:02:58;6.45;;;5.80;;
29240;SDS011;16268;49.880;8.648;2022-08-18T16:05:26;7.53;;;6.25;;
29240;SDS011;16268;49.880;8.648;2022-08-18T16:07:54;7.82;;;5.68;;
29240;SDS011;16268;49.880;8.648;2022-08-18T16:10:22;7.07;;;5.43;;
29240;SDS011;16268;49.880;8.648;2022-08-18T16:12:49;7.13;;;6.40;;
29240;SDS011;16268;49.880;8.648;2022-08-18T16:15:20;6.00;;;5.30;;
29240;SDS011;16268;49.880;8.648;2022-08-18T16:17:49;7.72;;;6.10;;
29240;SDS011;16268;49.880;8.648;2022-08-18T16:20:15;8.32;;;6.75;;
29240;SDS011;16268;49.880;8.648;2022-08-18T16:22:42;7.05;;;5.43;;
29240;SDS011;16268;49.880;8.648;2022-08-18T16:25:09;7.35;;;6.20;;
29240;SDS011;16268;49.880;8.648;2022-08-18T16:27:35;11.70;;;8.85;;
29240;SDS011;16268;49.880;8.648;2022-08-18T16:30:05;9.13;;;7.75;;
29240;SDS011;16268;49.880;8.648;2022-08-18T16:32:32;8.82;;;6.72;;
29240;SDS011;16268;49.880;8.648;2022-08-18T16:34:58;13.20;;;8.82;;
29240;SDS011;16268;49.880;8.648;2022-08-18T16:37:24;9.93;;;7.97;;
29240;SDS011;16268;49.880;8.648;2022-08-18T16:39:51;15.27;;;11.45;;
29240;SDS011;16268;49.880;8.648;2022-08-18T16:42:17;8.43;;;7.15;;
29240;SDS011;16268;49.880;8.648;2022-08-18T16:44:43;8.98;;;6.97;;
29240;SDS011;16268;49.880;8.648;2022-08-18T16:47:09;14.93;;;11.50;;
29240;SDS011;16268;49.880;8.648;2022-08-18T16:49:37;11.48;;;9.07;;
29240;SDS011;16268;49.880;8.648;2022-08-18T16:52:03;11.80;;;8.38;;
29240;SDS011;16268;49.880;8.648;2022-08-18T16:54:29;9.05;;;7.97;;
29240;SDS011;16268;49.880;8.648;2022-08-18T16:56:56;14.02;;;9.95;;
29240;SDS011;16268;49.880;8.648;2022-08-18T16:59:22;10.80;;;9.70;;
29240;SDS011;16268;49.880;8.648;2022-08-18T17:02:06;13.30;;;11.27;;
29240;SDS011;16268;49.880;8.648;2022-08-18T17:04:51;12.82;;;11.48;;
29240;SDS011;16268;49.880;8.648;2022-08-18T17:07:16;12.82;;;11.43;;
29240;SDS011;16268;49.880;8.648;2022-08-18T17:09:42;12.18;;;10.43;;
29240;SDS011;16268;49.880;8.648;2022-08-18T17:12:08;12.75;;;11.10;;
29240;SDS011;16268;49.880;8.648;2022-08-18T17:14:33;12.82;;;11.20;;
29240;SDS011;16268;49.880;8.648;2022-08-18T17:17:00;15.55;;;11.57;;
29240;SDS011;16268;49.880;8.648;2022-08-18T17:19:29;11.70;;;10.50;;